sensor_id;sensor_type;location;lat;lon;timestamp;pressure;altitude;pressure_sealevel;temperature;humidity
20350;BME280;10332;50.208;18.988;2022-12-29T00:00:21;98066.75;;;4.89;67.06
20350;BME280;10332;50.208;18.988;2022-12-29T00:03:09;98074.41;;;4.90;67.04
20350;BME280;10332;50.208;18.988;2022-12-29T00:05:37;98062.41;;;4.89;67.14
20350;BME280;10332;50.208;18.988;2022-12-29T00:08:04;98054.16;;;4.81;67.45
20350;BME280;10332;50.208;18.988;2022-12-29T00:10:33;98056.25;;;4.73;68.00
20350;BME280;10332;50.208;18.988;2022-12-29T00:13:00;98050.31;;;4.71;67.89
20350;BME280;10332;50.208;18.988;2022-12-29T00:15:46;98055.47;;;4.71;67.94
20350;BME280;10332;50.208;18.988;2022-12-29T00:18:14;98056.66;;;4.82;67.64
20350;BME280;10332;50.208;18.988;2022-12-29T00:20:41;98053.50;;;4.76;67.75
20350;BME280;10332;50.208;18.988;2022-12-29T00:23:27;98043.16;;;4.76;68.04
20350;BME280;10332;50.208;18.988;2022-12-29T00:26:16;98049.53;;;4.69;68.08
20350;BME280;10332;50.208;18.988;2022-12-29T00:29:03;98049.53;;;4.69;68.32
20350;BME280;10332;50.208;18.988;2022-12-29T00:31:49;98047.09;;;4.66;68.40
20350;BME280;10332;50.208;18.988;2022-12-29T00:34:35;98040.22;;;4.65;68.81
20350;BME280;10332;50.208;18.988;2022-12-29T00:37:21;98030.13;;;4.60;68.74
20350;BME280;10332;50.208;18.988;2022-12-29T00:40:09;98034.72;;;4.72;68.47
20350;BME280;10332;50.208;18.988;2022-12-29T00:42:55;98022.91;;;4.67;68.93
20350;BME280;10332;50.208;18.988;2022-12-29T00:45:42;98017.72;;;4.67;69.02
20350;BME280;10332;50.208;18.988;2022-12-29T00:48:09;98016.06;;;4.66;69.08
20350;BME280;10332;50.208;18.988;2022-12-29T00:50:37;98015.44;;;4.61;69.31
20350;BME280;10332;50.208;18.988;2022-12-29T00:53:04;98018.50;;;4.50;69.13
20350;BME280;10332;50.208;18.988;2022-12-29T00:55:36;98019.28;;;4.52;69.37
20350;BME280;10332;50.208;18.988;2022-12-29T00:58:03;98014.72;;;4.57;69.19
20350;BME280;10332;50.208;18.988;2022-12-29T01:00:31;98014.19;;;4.69;69.00
20350;BME280;10332;50.208;18.988;2022-12-29T01:02:58;98008.03;;;4.53;69.10
20350;BME280;10332;50.208;18.988;2022-12-29T01:05:27;98001.72;;;4.40;69.61
20350;BME280;10332;50.208;18.988;2022-12-29T01:07:54;97996.78;;;4.35;69.87
20350;BME280;10332;50.208;18.988;2022-12-29T01:10:21;97999.94;;;4.42;69.86
20350;BME280;10332;50.208;18.988;2022-12-29T01:12:49;97998.44;;;4.55;69.45
20350;BME280;10332;50.208;18.988;2022-12-29T01:15:17;98009.56;;;4.57;69.30
20350;BME280;10332;50.208;18.988;2022-12-29T01:17:45;98007.03;;;4.55;69.06
20350;BME280;10332;50.208;18.988;2022-12-29T01:20:13;98011.94;;;4.62;69.23
20350;BME280;10332;50.208;18.988;2022-12-29T01:22:40;98014.72;;;4.57;69.19
20350;BME280;10332;50.208;18.988;2022-12-29T01:25:09;98017.94;;;4.62;69.05
20350;BME280;10332;50.208;18.988;2022-12-29T01:27:37;98012.94;;;4.78;68.76
20350;BME280;10332;50.208;18.988;2022-12-29T01:30:05;98014.31;;;4.66;68.92
20350;BME280;10332;50.208;18.988;2022-12-29T01:32:33;98015.84;;;4.70;69.06
20350;BME280;10332;50.208;18.988;2022-12-29T01:35:00;98010.81;;;4.67;69.21
20350;BME280;10332;50.208;18.988;2022-12-29T01:37:28;98000.97;;;4.56;69.68
20350;BME280;10332;50.208;18.988;2022-12-29T01:39:55;98003.69;;;4.53;69.77
20350;BME280;10332;50.208;18.988;2022-12-29T01:42:24;97993.34;;;4.53;69.90
20350;BME280;10332;50.208;18.988;2022-12-29T01:45:19;98017.72;;;4.48;70.05
20350;BME280;10332;50.208;18.988;2022-12-29T01:47:57;98011.03;;;4.63;69.71
20350;BME280;10332;50.208;18.988;2022-12-29T01:50:41;98022.56;;;4.55;69.73
20350;BME280;10332;50.208;18.988;2022-12-29T01:53:27;98009.13;;;4.66;69.54
20350;BME280;10332;50.208;18.988;2022-12-29T01:56:02;98015.28;;;4.82;69.17
20350;BME280;10332;50.208;18.988;2022-12-29T01:58:37;98004.81;;;4.86;68.78
20350;BME280;10332;50.208;18.988;2022-12-29T02:01:06;98001.09;;;4.72;69.51
20350;BME280;10332;50.208;18.988;2022-12-29T02:03:35;97995.72;;;4.58;70.10
20350;BME280;10332;50.208;18.988;2022-12-29T02:06:23;98000.63;;;4.64;69.86
20350;BME280;10332;50.208;18.988;2022-12-29T02:08:56;97992.09;;;4.62;69.97
20350;BME280;10332;50.208;18.988;2022-12-29T02:11:26;97987.97;;;4.58;69.97
20350;BME280;10332;50.208;18.988;2022-12-29T02:13:56;97974.34;;;4.73;69.65
20350;BME280;10332;50.208;18.988;2022-12-29T02:25:47;97979.78;;;4.67;70.11
20350;BME280;10332;50.208;18.988;2022-12-29T02:31:54;97971.41;;;4.62;70.60
20350;BME280;10332;50.208;18.988;2022-12-29T02:46:05;97977.75;;;4.74;70.17
20350;BME280;10332;50.208;18.988;2022-12-29T02:48:46;97970.41;;;4.83;70.00
20350;BME280;10332;50.208;18.988;2022-12-29T02:51:27;97967.19;;;4.97;69.57
20350;BME280;10332;50.208;18.988;2022-12-29T02:53:59;97967.38;;;4.93;69.45
20350;BME280;10332;50.208;18.988;2022-12-29T02:56:45;97965.09;;;4.87;69.68
20350;BME280;10332;50.208;18.988;2022-12-29T02:59:13;97978.09;;;4.85;69.36
20350;BME280;10332;50.208;18.988;2022-12-29T03:08:17;97979.38;;;4.76;70.09
20350;BME280;10332;50.208;18.988;2022-12-29T03:11:11;97980.66;;;4.68;70.51
20350;BME280;10332;50.208;18.988;2022-12-29T03:14:27;97977.06;;;4.70;70.51
20350;BME280;10332;50.208;18.988;2022-12-29T03:17:32;97964.06;;;4.72;70.41
20350;BME280;10332;50.208;18.988;2022-12-29T03:20:10;97956.88;;;4.78;70.30
20350;BME280;10332;50.208;18.988;2022-12-29T03:22:44;97953.72;;;4.72;70.70
20350;BME280;10332;50.208;18.988;2022-12-29T03:25:39;97958.81;;;4.73;70.99
20350;BME280;10332;50.208;18.988;2022-12-29T03:28:20;97963.38;;;4.68;71.19
20350;BME280;10332;50.208;18.988;2022-12-29T03:30:49;97961.69;;;4.67;71.16
20350;BME280;10332;50.208;18.988;2022-12-29T03:33:23;97958.75;;;4.56;71.74
20350;BME280;10332;50.208;18.988;2022-12-29T03:35:58;97949.63;;;4.68;71.50
20350;BME280;10332;50.208;18.988;2022-12-29T03:39:00;97946.59;;;4.58;71.77
20350;BME280;10332;50.208;18.988;2022-12-29T03:41:31;97948.91;;;4.64;71.65
20350;BME280;10332;50.208;18.988;2022-12-29T03:44:00;97946.03;;;4.70;71.63
20350;BME280;10332;50.208;18.988;2022-12-29T03:46:28;97942.47;;;4.73;71.54
20350;BME280;10332;50.208;18.988;2022-12-29T03:48:55;97945.34;;;4.67;71.77
20350;BME280;10332;50.208;18.988;2022-12-29T03:51:23;97948.00;;;4.65;72.11
20350;BME280;10332;50.208;18.988;2022-12-29T03:53:50;97953.81;;;4.70;72.09
20350;BME280;10332;50.208;18.988;2022-12-29T03:56:18;97934.94;;;4.68;72.11
20350;BME280;10332;50.208;18.988;2022-12-29T03:58:45;97932.47;;;4.65;72.15
20350;BME280;10332;50.208;18.988;2022-12-29T04:01:12;97924.03;;;4.62;72.17
20350;BME280;10332;50.208;18.988;2022-12-29T04:03:40;97916.44;;;4.59;72.31
20350;BME280;10332;50.208;18.988;2022-12-29T04:06:08;97908.81;;;4.55;72.40
20350;BME280;10332;50.208;18.988;2022-12-29T04:08:35;97910.84;;;4.49;72.58
20350;BME280;10332;50.208;18.988;2022-12-29T04:11:02;97912.97;;;4.41;72.37
20350;BME280;10332;50.208;18.988;2022-12-29T04:13:30;97902.41;;;4.45;72.28
20350;BME280;10332;50.208;18.988;2022-12-29T04:15:58;97888.91;;;4.39;72.50
20350;BME280;10332;50.208;18.988;2022-12-29T04:18:26;97881.88;;;4.42;72.20
20350;BME280;10332;50.208;18.988;2022-12-29T04:20:53;97882.72;;;4.43;72.26
20350;BME280;10332;50.208;18.988;2022-12-29T04:23:28;97877.06;;;4.35;72.54
20350;BME280;10332;50.208;18.988;2022-12-29T04:25:56;97889.56;;;4.25;73.34
20350;BME280;10332;50.208;18.988;2022-12-29T04:28:24;97896.81;;;4.36;73.10
20350;BME280;10332;50.208;18.988;2022-12-29T04:30:52;97881.53;;;4.50;72.42
20350;BME280;10332;50.208;18.988;2022-12-29T04:33:20;97891.50;;;4.39;72.85
20350;BME280;10332;50.208;18.988;2022-12-29T04:35:48;97880.06;;;4.25;73.33
20350;BME280;10332;50.208;18.988;2022-12-29T04:38:16;97900.91;;;4.22;73.46
20350;BME280;10332;50.208;18.988;2022-12-29T04:40:45;97897.50;;;4.39;72.96
20350;BME280;10332;50.208;18.988;2022-12-29T04:43:13;97897.25;;;4.26;73.29
20350;BME280;10332;50.208;18.988;2022-12-29T04:45:46;97891.16;;;4.27;73.31
20350;BME280;10332;50.208;18.988;2022-12-29T04:48:14;97892.34;;;4.20;73.20
20350;BME280;10332;50.208;18.988;2022-12-29T04:50:42;97888.44;;;4.31;73.05
20350;BME280;10332;50.208;18.988;2022-12-29T04:53:10;97882.72;;;4.24;73.12
20350;BME280;10332;50.208;18.988;2022-12-29T04:55:37;97882.22;;;4.35;72.65
20350;BME280;10332;50.208;18.988;2022-12-29T04:58:05;97873.78;;;4.31;72.74
20350;BME280;10332;50.208;18.988;2022-12-29T05:00:34;97883.00;;;4.37;72.33
20350;BME280;10332;50.208;18.988;2022-12-29T05:03:01;97890.47;;;4.43;72.34
20350;BME280;10332;50.208;18.988;2022-12-29T05:05:30;97888.72;;;4.43;72.13
20350;BME280;10332;50.208;18.988;2022-12-29T05:07:57;97882.84;;;4.59;71.71
20350;BME280;10332;50.208;18.988;2022-12-29T05:10:24;97874.59;;;4.50;71.75
20350;BME280;10332;50.208;18.988;2022-12-29T05:12:52;97868.28;;;4.56;71.64
20350;BME280;10332;50.208;18.988;2022-12-29T05:15:20;97865.41;;;4.62;71.71
20350;BME280;10332;50.208;18.988;2022-12-29T05:17:47;97870.78;;;4.57;71.57
20350;BME280;10332;50.208;18.988;2022-12-29T05:20:15;97879.88;;;4.66;71.44
20350;BME280;10332;50.208;18.988;2022-12-29T05:22:43;97880.31;;;4.57;71.54
20350;BME280;10332;50.208;18.988;2022-12-29T05:25:11;97882.13;;;4.55;71.91
20350;BME280;10332;50.208;18.988;2022-12-29T05:27:38;97884.94;;;4.50;72.02
20350;BME280;10332;50.208;18.988;2022-12-29T05:30:06;97883.41;;;4.46;72.13
20350;BME280;10332;50.208;18.988;2022-12-29T05:32:34;97878.22;;;4.46;72.21
20350;BME280;10332;50.208;18.988;2022-12-29T05:35:02;97882.41;;;4.49;72.26
20350;BME280;10332;50.208;18.988;2022-12-29T05:37:29;97872.78;;;4.52;72.05
20350;BME280;10332;50.208;18.988;2022-12-29T05:39:56;97878.47;;;4.42;72.99
20350;BME280;10332;50.208;18.988;2022-12-29T05:42:24;97879.97;;;4.46;72.77
20350;BME280;10332;50.208;18.988;2022-12-29T05:44:51;97867.38;;;4.57;72.54
20350;BME280;10332;50.208;18.988;2022-12-29T05:47:20;97857.44;;;4.67;72.32
20350;BME280;10332;50.208;18.988;2022-12-29T05:49:48;97876.69;;;4.61;72.42
20350;BME280;10332;50.208;18.988;2022-12-29T05:52:15;97879.69;;;4.52;72.95
20350;BME280;10332;50.208;18.988;2022-12-29T05:54:43;97867.34;;;4.59;72.88
20350;BME280;10332;50.208;18.988;2022-12-29T05:57:10;97874.28;;;4.56;72.91
20350;BME280;10332;50.208;18.988;2022-12-29T05:59:38;97880.31;;;4.57;72.93
20350;BME280;10332;50.208;18.988;2022-12-29T06:02:05;97871.09;;;4.51;73.17
20350;BME280;10332;50.208;18.988;2022-12-29T06:04:33;97874.22;;;4.58;73.18
20350;BME280;10332;50.208;18.988;2022-12-29T06:07:00;97864.78;;;4.57;73.39
20350;BME280;10332;50.208;18.988;2022-12-29T06:09:28;97865.88;;;4.53;73.36
20350;BME280;10332;50.208;18.988;2022-12-29T06:11:55;97860.72;;;4.70;72.79
20350;BME280;10332;50.208;18.988;2022-12-29T06:14:23;97862.22;;;4.74;72.76
20350;BME280;10332;50.208;18.988;2022-12-29T06:16:50;97852.53;;;4.79;72.53
20350;BME280;10332;50.208;18.988;2022-12-29T06:19:18;97847.50;;;4.94;71.99
20350;BME280;10332;50.208;18.988;2022-12-29T06:21:45;97852.53;;;4.97;71.84
20350;BME280;10332;50.208;18.988;2022-12-29T06:24:13;97851.91;;;5.09;71.57
20350;BME280;10332;50.208;18.988;2022-12-29T06:26:41;97845.69;;;4.96;71.67
20350;BME280;10332;50.208;18.988;2022-12-29T06:29:09;97841.72;;;5.06;71.82
20350;BME280;10332;50.208;18.988;2022-12-29T06:31:36;97850.41;;;5.05;71.71
20350;BME280;10332;50.208;18.988;2022-12-29T06:34:04;97840.81;;;5.07;71.64
20350;BME280;10332;50.208;18.988;2022-12-29T06:36:34;97849.47;;;4.89;72.11
20350;BME280;10332;50.208;18.988;2022-12-29T06:39:02;97838.69;;;5.15;71.38
20350;BME280;10332;50.208;18.988;2022-12-29T06:41:29;97852.38;;;5.00;71.78
20350;BME280;10332;50.208;18.988;2022-12-29T06:43:58;97849.41;;;5.07;72.46
20350;BME280;10332;50.208;18.988;2022-12-29T06:46:26;97847.44;;;5.12;72.42
20350;BME280;10332;50.208;18.988;2022-12-29T06:48:53;97856.63;;;5.18;71.79
20350;BME280;10332;50.208;18.988;2022-12-29T06:51:21;97852.06;;;5.23;71.87
20350;BME280;10332;50.208;18.988;2022-12-29T06:53:49;97839.13;;;5.23;71.50
20350;BME280;10332;50.208;18.988;2022-12-29T06:56:16;97851.16;;;5.24;71.46
20350;BME280;10332;50.208;18.988;2022-12-29T06:58:44;97834.28;;;5.50;70.73
20350;BME280;10332;50.208;18.988;2022-12-29T07:01:11;97823.50;;;5.42;70.53
20350;BME280;10332;50.208;18.988;2022-12-29T07:03:41;97839.16;;;5.39;70.84
20350;BME280;10332;50.208;18.988;2022-12-29T07:06:09;97838.63;;;5.50;70.85
20350;BME280;10332;50.208;18.988;2022-12-29T07:08:37;97852.19;;;5.37;71.30
20350;BME280;10332;50.208;18.988;2022-12-29T07:11:06;97845.41;;;5.35;71.54
20350;BME280;10332;50.208;18.988;2022-12-29T07:13:33;97841.53;;;5.44;71.45
20350;BME280;10332;50.208;18.988;2022-12-29T07:16:09;97844.19;;;5.42;71.72
20350;BME280;10332;50.208;18.988;2022-12-29T07:18:37;97841.06;;;5.53;71.09
20350;BME280;10332;50.208;18.988;2022-12-29T07:21:04;97846.91;;;5.56;71.45
20350;BME280;10332;50.208;18.988;2022-12-29T07:23:32;97842.72;;;5.54;71.04
20350;BME280;10332;50.208;18.988;2022-12-29T07:26:11;97852.44;;;5.66;71.01
20350;BME280;10332;50.208;18.988;2022-12-29T07:28:39;97843.41;;;5.57;71.26
20350;BME280;10332;50.208;18.988;2022-12-29T07:31:19;97849.38;;;5.75;71.09
20350;BME280;10332;50.208;18.988;2022-12-29T07:33:47;97852.38;;;5.83;71.12
20350;BME280;10332;50.208;18.988;2022-12-29T07:36:15;97864.28;;;5.87;71.08
20350;BME280;10332;50.208;18.988;2022-12-29T07:38:43;97868.75;;;6.01;70.67
20350;BME280;10332;50.208;18.988;2022-12-29T07:41:11;97881.16;;;6.12;70.16
20350;BME280;10332;50.208;18.988;2022-12-29T07:43:39;97883.16;;;6.22;69.89
20350;BME280;10332;50.208;18.988;2022-12-29T07:46:06;97876.63;;;6.31;69.42
20350;BME280;10332;50.208;18.988;2022-12-29T07:48:56;97863.66;;;6.47;69.06
20350;BME280;10332;50.208;18.988;2022-12-29T07:51:23;97863.06;;;6.58;68.87
20350;BME280;10332;50.208;18.988;2022-12-29T07:53:50;97876.84;;;6.74;68.37
20350;BME280;10332;50.208;18.988;2022-12-29T07:56:18;97865.91;;;6.69;68.62
20350;BME280;10332;50.208;18.988;2022-12-29T07:58:45;97876.25;;;6.85;67.92
20350;BME280;10332;50.208;18.988;2022-12-29T08:01:13;97884.91;;;6.99;67.56
20350;BME280;10332;50.208;18.988;2022-12-29T08:03:40;97873.47;;;7.18;67.16
20350;BME280;10332;50.208;18.988;2022-12-29T08:06:11;97871.56;;;7.21;66.75
20350;BME280;10332;50.208;18.988;2022-12-29T08:08:39;97868.53;;;7.43;66.16
20350;BME280;10332;50.208;18.988;2022-12-29T08:11:06;97870.13;;;7.60;65.59
20350;BME280;10332;50.208;18.988;2022-12-29T08:13:34;97855.00;;;7.38;65.79
20350;BME280;10332;50.208;18.988;2022-12-29T08:16:01;97852.38;;;7.52;65.74
20350;BME280;10332;50.208;18.988;2022-12-29T08:18:29;97845.34;;;7.40;65.90
20350;BME280;10332;50.208;18.988;2022-12-29T08:21:03;97861.78;;;7.10;66.88
20350;BME280;10332;50.208;18.988;2022-12-29T08:23:31;97853.59;;;7.02;67.13
20350;BME280;10332;50.208;18.988;2022-12-29T08:26:02;97858.44;;;7.08;67.01
20350;BME280;10332;50.208;18.988;2022-12-29T08:28:32;97836.53;;;6.98;67.23
20350;BME280;10332;50.208;18.988;2022-12-29T08:31:01;97834.13;;;7.09;66.96
20350;BME280;10332;50.208;18.988;2022-12-29T08:33:30;97825.63;;;7.07;67.14
20350;BME280;10332;50.208;18.988;2022-12-29T08:36:03;97839.31;;;6.95;67.67
20350;BME280;10332;50.208;18.988;2022-12-29T08:38:32;97835.00;;;7.10;67.61
20350;BME280;10332;50.208;18.988;2022-12-29T08:41:00;97842.06;;;7.22;67.06
20350;BME280;10332;50.208;18.988;2022-12-29T08:43:31;97851.06;;;7.31;66.71
20350;BME280;10332;50.208;18.988;2022-12-29T08:45:58;97857.88;;;8.05;64.62
20350;BME280;10332;50.208;18.988;2022-12-29T08:48:27;97874.97;;;8.91;61.71
20350;BME280;10332;50.208;18.988;2022-12-29T08:50:54;97884.63;;;10.31;57.24
20350;BME280;10332;50.208;18.988;2022-12-29T08:53:27;97858.94;;;11.55;54.16
20350;BME280;10332;50.208;18.988;2022-12-29T08:55:59;97852.34;;;12.07;50.90
20350;BME280;10332;50.208;18.988;2022-12-29T08:58:32;97849.72;;;13.05;50.12
20350;BME280;10332;50.208;18.988;2022-12-29T09:01:00;97850.91;;;13.54;47.29
20350;BME280;10332;50.208;18.988;2022-12-29T09:03:27;97871.31;;;14.82;44.69
20350;BME280;10332;50.208;18.988;2022-12-29T09:06:17;97857.69;;;15.83;41.73
20350;BME280;10332;50.208;18.988;2022-12-29T09:08:45;97856.72;;;16.49;40.55
20350;BME280;10332;50.208;18.988;2022-12-29T09:11:17;97856.41;;;16.80;39.79
20350;BME280;10332;50.208;18.988;2022-12-29T09:13:46;97855.19;;;17.89;38.42
20350;BME280;10332;50.208;18.988;2022-12-29T09:16:15;97860.03;;;18.86;36.82
20350;BME280;10332;50.208;18.988;2022-12-29T09:18:44;97870.84;;;19.74;34.38
20350;BME280;10332;50.208;18.988;2022-12-29T09:21:12;97856.09;;;21.06;32.79
20350;BME280;10332;50.208;18.988;2022-12-29T09:23:40;97858.94;;;21.04;32.13
20350;BME280;10332;50.208;18.988;2022-12-29T09:26:08;97854.97;;;21.98;31.13
20350;BME280;10332;50.208;18.988;2022-12-29T09:28:36;97855.75;;;22.07;30.87
20350;BME280;10332;50.208;18.988;2022-12-29T09:31:03;97855.09;;;22.49;29.94
20350;BME280;10332;50.208;18.988;2022-12-29T09:33:31;97845.41;;;22.99;29.09
20350;BME280;10332;50.208;18.988;2022-12-29T09:36:02;97850.50;;;22.43;29.67
20350;BME280;10332;50.208;18.988;2022-12-29T09:38:30;97845.09;;;24.01;28.23
20350;BME280;10332;50.208;18.988;2022-12-29T09:41:25;97859.16;;;24.23;27.55
20350;BME280;10332;50.208;18.988;2022-12-29T09:46:41;97846.38;;;17.80;35.34
20350;BME280;10332;50.208;18.988;2022-12-29T09:49:46;97830.09;;;17.23;37.08
20350;BME280;10332;50.208;18.988;2022-12-29T09:52:26;97836.25;;;18.94;34.71
20350;BME280;10332;50.208;18.988;2022-12-29T10:00:27;97827.25;;;13.96;44.15
20350;BME280;10332;50.208;18.988;2022-12-29T10:03:05;97833.09;;;13.78;44.62
20350;BME280;10332;50.208;18.988;2022-12-29T10:05:56;97829.56;;;13.58;45.57
20350;BME280;10332;50.208;18.988;2022-12-29T10:08:39;97838.13;;;12.87;47.63
20350;BME280;10332;50.208;18.988;2022-12-29T10:11:40;97831.69;;;13.12;47.56
20350;BME280;10332;50.208;18.988;2022-12-29T10:14:43;97849.22;;;13.95;45.83
20350;BME280;10332;50.208;18.988;2022-12-29T10:20:31;97818.47;;;19.93;34.82
20350;BME280;10332;50.208;18.988;2022-12-29T10:23:32;97815.84;;;19.93;35.10
20350;BME280;10332;50.208;18.988;2022-12-29T10:26:02;97798.91;;;23.44;30.66
20350;BME280;10332;50.208;18.988;2022-12-29T10:28:43;97797.88;;;25.50;27.41
20350;BME280;10332;50.208;18.988;2022-12-29T10:31:21;97836.69;;;23.05;29.53
20350;BME280;10332;50.208;18.988;2022-12-29T10:34:00;97805.34;;;21.23;31.75
20350;BME280;10332;50.208;18.988;2022-12-29T10:36:37;97811.06;;;22.02;30.74
20350;BME280;10332;50.208;18.988;2022-12-29T10:39:34;97811.91;;;20.28;33.26
20350;BME280;10332;50.208;18.988;2022-12-29T10:42:27;97813.84;;;21.57;31.42
20350;BME280;10332;50.208;18.988;2022-12-29T10:44:58;97798.34;;;21.31;31.59
20350;BME280;10332;50.208;18.988;2022-12-29T10:47:35;97788.47;;;20.93;32.43
20350;BME280;10332;50.208;18.988;2022-12-29T10:50:05;97796.53;;;23.07;29.85
20350;BME280;10332;50.208;18.988;2022-12-29T10:52:38;97787.97;;;23.61;29.06
20350;BME280;10332;50.208;18.988;2022-12-29T10:55:21;97795.75;;;22.34;30.47
20350;BME280;10332;50.208;18.988;2022-12-29T10:57:50;97812.19;;;23.16;29.75
20350;BME280;10332;50.208;18.988;2022-12-29T11:00:21;97802.03;;;23.48;29.34
20350;BME280;10332;50.208;18.988;2022-12-29T11:06:15;97825.66;;;18.78;34.87
20350;BME280;10332;50.208;18.988;2022-12-29T11:09:15;97812.47;;;17.06;38.03
20350;BME280;10332;50.208;18.988;2022-12-29T11:11:44;97808.28;;;16.05;40.23
20350;BME280;10332;50.208;18.988;2022-12-29T11:14:27;97807.78;;;15.35;42.14
20350;BME280;10332;50.208;18.988;2022-12-29T11:17:01;97802.38;;;15.27;42.76
20350;BME280;10332;50.208;18.988;2022-12-29T11:19:32;97809.63;;;14.96;43.71
20350;BME280;10332;50.208;18.988;2022-12-29T11:22:27;97810.03;;;14.62;44.68
20350;BME280;10332;50.208;18.988;2022-12-29T11:25:06;97794.06;;;14.35;45.40
20350;BME280;10332;50.208;18.988;2022-12-29T11:27:58;97801.69;;;13.98;46.22
20350;BME280;10332;50.208;18.988;2022-12-29T11:30:29;97800.47;;;14.61;45.48
20350;BME280;10332;50.208;18.988;2022-12-29T11:32:58;97813.94;;;14.37;45.96
20350;BME280;10332;50.208;18.988;2022-12-29T11:35:41;97817.00;;;14.33;46.02
20350;BME280;10332;50.208;18.988;2022-12-29T11:38:55;97813.91;;;14.97;45.01
20350;BME280;10332;50.208;18.988;2022-12-29T11:41:29;97799.66;;;14.80;45.16
20350;BME280;10332;50.208;18.988;2022-12-29T11:44:02;97815.63;;;14.38;46.48
20350;BME280;10332;50.208;18.988;2022-12-29T11:46:36;97795.50;;;14.77;45.89
20350;BME280;10332;50.208;18.988;2022-12-29T11:49:06;97780.84;;;14.85;45.57
20350;BME280;10332;50.208;18.988;2022-12-29T11:51:46;97793.41;;;15.00;45.20
20350;BME280;10332;50.208;18.988;2022-12-29T11:54:33;97799.50;;;14.62;45.90
20350;BME280;10332;50.208;18.988;2022-12-29T11:57:16;97804.06;;;14.51;46.75
20350;BME280;10332;50.208;18.988;2022-12-29T11:59:53;97800.22;;;14.14;47.60
20350;BME280;10332;50.208;18.988;2022-12-29T12:02:37;97816.59;;;13.97;48.36
20350;BME280;10332;50.208;18.988;2022-12-29T12:08:11;97787.72;;;15.91;44.17
20350;BME280;10332;50.208;18.988;2022-12-29T12:13:58;97792.16;;;16.17;43.66
20350;BME280;10332;50.208;18.988;2022-12-29T12:16:37;97795.81;;;16.25;42.92
20350;BME280;10332;50.208;18.988;2022-12-29T12:19:36;97793.28;;;16.96;42.03
20350;BME280;10332;50.208;18.988;2022-12-29T12:22:20;97791.25;;;17.08;41.92
20350;BME280;10332;50.208;18.988;2022-12-29T12:27:36;97792.09;;;15.43;45.06
20350;BME280;10332;50.208;18.988;2022-12-29T12:30:19;97809.31;;;15.09;46.15
20350;BME280;10332;50.208;18.988;2022-12-29T12:33:03;97798.28;;;14.76;46.43
20350;BME280;10332;50.208;18.988;2022-12-29T12:35:43;97808.63;;;14.48;46.69
20350;BME280;10332;50.208;18.988;2022-12-29T12:38:54;97787.97;;;13.84;48.14
20350;BME280;10332;50.208;18.988;2022-12-29T12:45:15;97783.41;;;13.25;50.32
20350;BME280;10332;50.208;18.988;2022-12-29T12:59:56;97766.13;;;11.83;55.13
20350;BME280;10332;50.208;18.988;2022-12-29T13:06:06;97747.97;;;12.57;53.65
20350;BME280;10332;50.208;18.988;2022-12-29T13:08:53;97787.59;;;13.58;50.79
20350;BME280;10332;50.208;18.988;2022-12-29T13:20:06;97784.78;;;16.21;43.67
20350;BME280;10332;50.208;18.988;2022-12-29T13:22:56;97788.22;;;16.22;43.74
20350;BME280;10332;50.208;18.988;2022-12-29T13:28:53;97790.75;;;15.39;45.71
20350;BME280;10332;50.208;18.988;2022-12-29T13:40:53;97772.22;;;13.54;50.45
20350;BME280;10332;50.208;18.988;2022-12-29T13:43:23;97777.59;;;13.22;51.47
20350;BME280;10332;50.208;18.988;2022-12-29T13:46:06;97774.78;;;13.02;52.37
20350;BME280;10332;50.208;18.988;2022-12-29T13:48:51;97788.84;;;12.81;53.18
20350;BME280;10332;50.208;18.988;2022-12-29T13:51:23;97782.97;;;12.67;53.73
20350;BME280;10332;50.208;18.988;2022-12-29T13:54:55;97804.16;;;12.64;53.90
20350;BME280;10332;50.208;18.988;2022-12-29T13:57:31;97758.56;;;12.35;54.78
20350;BME280;10332;50.208;18.988;2022-12-29T14:00:16;97768.84;;;12.15;55.56
20350;BME280;10332;50.208;18.988;2022-12-29T14:03:00;97778.59;;;12.13;55.60
20350;BME280;10332;50.208;18.988;2022-12-29T14:05:32;97775.28;;;11.89;56.39
20350;BME280;10332;50.208;18.988;2022-12-29T14:08:05;97781.19;;;11.57;57.47
20350;BME280;10332;50.208;18.988;2022-12-29T14:10:51;97778.22;;;11.40;58.08
20350;BME280;10332;50.208;18.988;2022-12-29T14:13:22;97771.66;;;11.23;58.70
20350;BME280;10332;50.208;18.988;2022-12-29T14:15:57;97789.03;;;11.24;58.83
20350;BME280;10332;50.208;18.988;2022-12-29T14:18:41;97780.41;;;10.88;60.12
20350;BME280;10332;50.208;18.988;2022-12-29T14:21:21;97773.47;;;10.87;60.61
20350;BME280;10332;50.208;18.988;2022-12-29T14:23:50;97783.69;;;10.55;61.71
20350;BME280;10332;50.208;18.988;2022-12-29T14:34:54;97778.97;;;10.95;60.33
20350;BME280;10332;50.208;18.988;2022-12-29T14:37:36;97771.63;;;10.65;61.06
20350;BME280;10332;50.208;18.988;2022-12-29T14:40:16;97762.78;;;10.44;61.69
20350;BME280;10332;50.208;18.988;2022-12-29T14:42:51;97773.66;;;10.38;62.23
20350;BME280;10332;50.208;18.988;2022-12-29T14:47:52;97777.28;;;9.62;64.10
20350;BME280;10332;50.208;18.988;2022-12-29T14:50:32;97786.97;;;9.60;64.42
20350;BME280;10332;50.208;18.988;2022-12-29T14:53:06;97775.00;;;9.45;64.92
20350;BME280;10332;50.208;18.988;2022-12-29T14:55:37;97782.00;;;9.31;65.63
20350;BME280;10332;50.208;18.988;2022-12-29T14:58:34;97768.53;;;9.12;66.47
20350;BME280;10332;50.208;18.988;2022-12-29T15:01:32;97784.56;;;9.06;66.69
20350;BME280;10332;50.208;18.988;2022-12-29T15:04:27;97785.84;;;9.00;67.14
20350;BME280;10332;50.208;18.988;2022-12-29T15:06:59;97783.00;;;9.03;67.11
20350;BME280;10332;50.208;18.988;2022-12-29T15:09:43;97787.78;;;8.97;67.35
20350;BME280;10332;50.208;18.988;2022-12-29T15:12:49;97790.09;;;9.01;67.23
20350;BME280;10332;50.208;18.988;2022-12-29T15:15:26;97780.91;;;8.96;67.59
20350;BME280;10332;50.208;18.988;2022-12-29T15:17:54;97778.41;;;8.94;67.76
20350;BME280;10332;50.208;18.988;2022-12-29T15:20:28;97778.41;;;8.94;67.74